createdAt,value
2018-09-26T00:00:24.529Z,0
2018-09-26T00:01:26.542Z,0
2018-09-26T00:02:28.852Z,0
2018-09-26T00:03:30.878Z,0
2018-09-26T00:04:32.908Z,0
2018-09-26T00:05:34.917Z,0
2018-09-26T00:06:37.242Z,0
2018-09-26T00:07:39.254Z,0
2018-09-26T00:08:41.270Z,0
2018-09-26T00:09:43.306Z,0
2018-09-26T00:10:45.320Z,0
2018-09-26T00:11:47.346Z,0
2018-09-26T00:12:49.362Z,0
2018-09-26T00:13:51.674Z,0
2018-09-26T00:14:53.974Z,0
2018-09-26T00:15:56.000Z,0
2018-09-26T00:16:58.598Z,0
2018-09-26T00:18:00.629Z,0
2018-09-26T00:19:02.641Z,0
2018-09-26T00:20:04.669Z,0
2018-09-26T00:21:06.696Z,0
2018-09-26T00:22:08.723Z,0
2018-09-26T00:23:11.124Z,0
2018-09-26T00:24:13.144Z,0
2018-09-26T00:25:15.168Z,0
2018-09-26T00:26:17.183Z,0
2018-09-26T00:27:19.214Z,0
2018-09-26T00:28:21.616Z,0
2018-09-26T00:29:23.631Z,0
2018-09-26T00:30:26.050Z,0
2018-09-26T00:31:28.065Z,0
2018-09-26T00:32:30.088Z,0
2018-09-26T00:33:32.117Z,0
2018-09-26T00:34:34.123Z,0
2018-09-26T00:35:36.151Z,0
2018-09-26T00:36:38.179Z,0
2018-09-26T00:37:40.563Z,0
2018-09-26T00:38:42.858Z,0
2018-09-26T00:39:44.887Z,0
2018-09-26T00:40:47.208Z,0
2018-09-26T00:41:49.907Z,0
2018-09-26T00:42:52.224Z,0
2018-09-26T00:43:54.234Z,0
2018-09-26T00:44:56.261Z,0
2018-09-26T00:45:58.560Z,0
2018-09-26T00:47:00.593Z,0
2018-09-26T00:48:02.611Z,0
2018-09-26T00:49:04.633Z,0
2018-09-26T00:50:07.045Z,0
2018-09-26T00:51:09.066Z,0
2018-09-26T00:52:11.093Z,0
2018-09-26T00:53:13.119Z,0
2018-09-26T00:54:15.143Z,0
2018-09-26T00:55:17.170Z,0
2018-09-26T00:56:19.474Z,0
2018-09-26T00:57:21.778Z,0
2018-09-26T00:58:23.793Z,0
2018-09-26T00:59:25.808Z,0
2018-09-26T01:00:27.841Z,0
2018-09-26T01:01:29.918Z,0
2018-09-26T01:02:31.879Z,0
2018-09-26T01:03:33.906Z,0
2018-09-26T01:04:35.932Z,0
2018-09-26T01:05:38.527Z,0
2018-09-26T01:06:40.554Z,0
2018-09-26T01:07:42.563Z,0
2018-09-26T01:08:45.359Z,0
2018-09-26T01:09:47.384Z,0
2018-09-26T01:10:49.411Z,0
2018-09-26T01:11:51.421Z,0
2018-09-26T01:12:53.450Z,0
2018-09-26T01:13:55.466Z,0
2018-09-26T01:14:57.487Z,0
2018-09-26T01:15:59.514Z,0
2018-09-26T01:17:01.823Z,0
2018-09-26T01:18:04.155Z,0
2018-09-26T01:19:06.458Z,0
2018-09-26T01:20:08.490Z,0
2018-09-26T01:21:10.790Z,0
2018-09-26T01:22:12.813Z,0
2018-09-26T01:23:15.510Z,0
2018-09-26T01:24:17.525Z,0
2018-09-26T01:25:19.560Z,0
2018-09-26T01:26:21.576Z,0
2018-09-26T01:27:23.594Z,0
2018-09-26T01:28:25.609Z,0
2018-09-26T01:29:27.636Z,0
2018-09-26T01:30:29.661Z,0
2018-09-26T01:31:31.681Z,0
2018-09-26T01:32:34.093Z,0
2018-09-26T01:33:36.101Z,0
2018-09-26T01:34:38.127Z,0
2018-09-26T01:35:40.434Z,0
2018-09-26T01:36:42.446Z,0
2018-09-26T01:37:44.476Z,0
2018-09-26T01:38:46.502Z,0
2018-09-26T01:39:48.815Z,0
2018-09-26T01:40:50.847Z,0
2018-09-26T01:41:52.865Z,0
2018-09-26T01:42:55.171Z,0
2018-09-26T01:43:57.187Z,0
2018-09-26T01:44:59.218Z,0
2018-09-26T01:46:01.528Z,0
2018-09-26T01:47:03.554Z,0
2018-09-26T01:48:05.580Z,0
2018-09-26T01:49:08.368Z,0
2018-09-26T01:50:10.427Z,0
2018-09-26T01:51:12.412Z,0
2018-09-26T01:52:14.438Z,0
2018-09-26T01:53:16.448Z,0
2018-09-26T01:54:18.472Z,0
2018-09-26T01:55:20.774Z,0
2018-09-26T01:56:22.789Z,0
2018-09-26T01:57:24.823Z,0
2018-09-26T01:58:26.833Z,0
2018-09-26T01:59:28.855Z,0
2018-09-26T02:00:30.881Z,0
2018-09-26T02:01:32.911Z,0
2018-09-26T02:02:34.927Z,0
2018-09-26T02:03:36.947Z,0
2018-09-26T02:04:38.962Z,0
2018-09-26T02:05:40.981Z,0
2018-09-26T02:06:43.397Z,0
2018-09-26T02:07:45.414Z,0
2018-09-26T02:08:47.437Z,0
2018-09-26T02:09:49.445Z,0
2018-09-26T02:10:51.861Z,0
2018-09-26T02:11:53.881Z,0
2018-09-26T02:12:55.896Z,0
2018-09-26T02:13:57.928Z,0
2018-09-26T02:14:59.946Z,0
2018-09-26T02:16:02.249Z,0
2018-09-26T02:17:04.264Z,0
2018-09-26T02:18:06.578Z,0
2018-09-26T02:19:08.590Z,0
2018-09-26T02:20:10.622Z,0
2018-09-26T02:21:12.648Z,0
2018-09-26T02:22:14.658Z,0
2018-09-26T02:23:17.356Z,0
2018-09-26T02:24:19.372Z,0
2018-09-26T02:25:21.396Z,0
2018-09-26T02:26:23.409Z,0
2018-09-26T02:27:25.436Z,0
2018-09-26T02:28:27.461Z,0
2018-09-26T02:29:30.048Z,0
2018-09-26T02:30:32.685Z,0
2018-09-26T02:31:35.072Z,0
2018-09-26T02:32:37.401Z,0
2018-09-26T02:33:39.811Z,0
2018-09-26T02:34:41.839Z,0
2018-09-26T02:35:43.854Z,0
2018-09-26T02:36:46.434Z,0
2018-09-26T02:37:48.449Z,0
2018-09-26T02:38:50.469Z,0
2018-09-26T02:39:52.501Z,0
2018-09-26T02:40:54.807Z,0
2018-09-26T02:41:57.109Z,0
2018-09-26T02:42:59.430Z,0
2018-09-26T02:44:01.491Z,0
2018-09-26T02:45:04.244Z,0
2018-09-26T02:46:06.273Z,0
2018-09-26T02:47:08.288Z,0
2018-09-26T02:48:10.896Z,0
2018-09-26T02:49:12.926Z,0
2018-09-26T02:50:14.955Z,0
2018-09-26T02:51:16.968Z,0
2018-09-26T02:52:19.574Z,0
2018-09-26T02:53:22.458Z,0
2018-09-26T02:54:24.772Z,0
2018-09-26T02:55:27.096Z,0
2018-09-26T02:56:29.112Z,0
2018-09-26T02:57:31.137Z,0
2018-09-26T02:58:33.537Z,0
2018-09-26T02:59:35.856Z,0
2018-09-26T03:00:38.161Z,0
2018-09-26T03:01:40.750Z,0
2018-09-26T03:02:43.075Z,0
2018-09-26T03:03:45.090Z,0
2018-09-26T03:04:47.122Z,0
2018-09-26T03:05:49.529Z,0
2018-09-26T03:06:51.940Z,0
2018-09-26T03:07:53.955Z,0
2018-09-26T03:08:56.752Z,0
2018-09-26T03:09:59.345Z,0
2018-09-26T03:11:01.722Z,0
2018-09-26T03:12:03.691Z,0
2018-09-26T03:13:05.700Z,0
2018-09-26T03:14:08.010Z,0
2018-09-26T03:15:10.035Z,0
2018-09-26T03:16:12.044Z,0
2018-09-26T03:17:14.355Z,0
2018-09-26T03:18:16.373Z,0
2018-09-26T03:19:18.387Z,0
2018-09-26T03:20:21.126Z,0
2018-09-26T03:21:23.446Z,0
2018-09-26T03:22:25.466Z,0
2018-09-26T03:23:28.055Z,0
2018-09-26T03:24:30.071Z,0
2018-09-26T03:25:32.398Z,0
2018-09-26T03:26:34.425Z,0
2018-09-26T03:27:36.431Z,0
2018-09-26T03:28:38.462Z,0
2018-09-26T03:29:40.476Z,0
2018-09-26T03:30:43.199Z,0
2018-09-26T03:31:45.654Z,0
2018-09-26T03:32:47.693Z,0
2018-09-26T03:33:49.787Z,0
2018-09-26T03:34:51.732Z,0
2018-09-26T03:35:53.764Z,0
2018-09-26T03:36:56.056Z,0
2018-09-26T03:37:58.088Z,0
2018-09-26T03:39:00.398Z,0
2018-09-26T03:40:02.408Z,0
2018-09-26T03:41:04.423Z,0
2018-09-26T03:42:06.741Z,0
2018-09-26T03:43:08.760Z,0
2018-09-26T03:44:10.785Z,0
2018-09-26T03:45:13.200Z,0
2018-09-26T03:46:15.213Z,0
2018-09-26T03:47:17.238Z,0
2018-09-26T03:48:19.266Z,0
2018-09-26T03:49:21.284Z,0
2018-09-26T03:50:23.589Z,0
2018-09-26T03:51:25.892Z,0
2018-09-26T03:52:27.907Z,0
2018-09-26T03:53:30.238Z,0
2018-09-26T03:54:32.844Z,0
2018-09-26T03:55:35.157Z,0
2018-09-26T03:56:37.173Z,0
2018-09-26T03:57:39.490Z,0
2018-09-26T03:58:41.889Z,0
2018-09-26T03:59:43.924Z,0
2018-09-26T04:00:45.952Z,0
2018-09-26T04:01:48.272Z,0
2018-09-26T04:02:50.303Z,0
2018-09-26T04:03:52.337Z,0
2018-09-26T04:04:54.409Z,0
2018-09-26T04:05:56.362Z,0
2018-09-26T04:06:58.417Z,0
2018-09-26T04:08:00.411Z,0
2018-09-26T04:09:02.425Z,0
2018-09-26T04:10:04.462Z,0
2018-09-26T04:11:07.170Z,0
2018-09-26T04:12:09.197Z,0
2018-09-26T04:13:11.301Z,0
2018-09-26T04:14:14.243Z,0
2018-09-26T04:15:16.642Z,0
2018-09-26T04:16:18.667Z,0
2018-09-26T04:17:21.249Z,0
2018-09-26T04:18:23.552Z,0
2018-09-26T04:19:25.586Z,0
2018-09-26T04:20:27.644Z,0
2018-09-26T04:21:29.620Z,0
2018-09-26T04:22:31.654Z,0
2018-09-26T04:23:34.347Z,0
2018-09-26T04:24:36.366Z,0
2018-09-26T04:25:38.992Z,0
2018-09-26T04:26:41.123Z,0
2018-09-26T04:27:43.683Z,0
2018-09-26T04:28:47.890Z,0
2018-09-26T04:29:49.917Z,0
2018-09-26T04:30:52.889Z,0
2018-09-26T04:31:54.917Z,0
2018-09-26T04:32:57.445Z,0
2018-09-26T04:33:59.327Z,0
2018-09-26T04:35:01.557Z,0
2018-09-26T04:36:03.574Z,0
2018-09-26T04:37:05.602Z,0
2018-09-26T04:38:07.905Z,0
2018-09-26T04:39:09.942Z,4
2018-09-26T04:40:12.245Z,4
2018-09-26T04:41:14.270Z,4
2018-09-26T04:42:16.962Z,4
2018-09-26T04:43:19.018Z,4
2018-09-26T04:44:21.434Z,8
2018-09-26T04:45:23.741Z,8
2018-09-26T04:46:25.771Z,12
2018-09-26T04:47:28.492Z,12
2018-09-26T04:48:30.510Z,12
2018-09-26T04:49:32.526Z,16
2018-09-26T04:50:34.540Z,20
2018-09-26T04:51:36.841Z,20
2018-09-26T04:52:39.165Z,28
2018-09-26T04:53:41.567Z,32
2018-09-26T04:54:43.582Z,40
2018-09-26T04:55:45.893Z,44
2018-09-26T04:56:47.909Z,52
2018-09-26T04:57:50.043Z,60
2018-09-26T04:58:52.813Z,64
2018-09-26T04:59:55.402Z,76
2018-09-26T05:00:57.428Z,84
2018-09-26T05:01:59.737Z,92
2018-09-26T05:03:02.068Z,104
2018-09-26T05:04:04.362Z,116
2018-09-26T05:05:06.665Z,128
2018-09-26T05:06:09.258Z,140
2018-09-26T05:07:11.273Z,152
2018-09-26T05:08:13.353Z,168
2018-09-26T05:09:15.315Z,180
2018-09-26T05:10:18.042Z,196
2018-09-26T05:11:20.053Z,212
2018-09-26T05:12:22.087Z,236
2018-09-26T05:13:24.103Z,268
2018-09-26T05:14:26.120Z,300
2018-09-26T05:15:28.150Z,336
2018-09-26T05:16:30.161Z,380
2018-09-26T05:17:32.187Z,420
2018-09-26T05:18:34.492Z,464
2018-09-26T05:19:36.518Z,512
2018-09-26T05:20:38.541Z,564
2018-09-26T05:21:40.559Z,612
2018-09-26T05:22:42.612Z,660
2018-09-26T05:23:44.596Z,708
2018-09-26T05:24:46.895Z,756
2018-09-26T05:25:49.211Z,800
2018-09-26T05:26:51.239Z,840
2018-09-26T05:27:53.252Z,888
2018-09-26T05:28:55.286Z,920
2018-09-26T05:29:57.301Z,956
2018-09-26T05:30:59.321Z,996
2018-09-26T05:32:01.345Z,1036
2018-09-26T05:33:03.353Z,1092
2018-09-26T05:34:05.378Z,1156
2018-09-26T05:35:07.790Z,1236
2018-09-26T05:36:09.817Z,1328
2018-09-26T05:37:12.209Z,1416
2018-09-26T05:38:14.243Z,1504
2018-09-26T05:39:16.257Z,1584
2018-09-26T05:40:18.271Z,1644
2018-09-26T05:41:20.304Z,1712
2018-09-26T05:42:22.314Z,1764
2018-09-26T05:43:24.340Z,1824
2018-09-26T05:44:26.357Z,1872
2018-09-26T05:45:28.387Z,1936
2018-09-26T05:46:30.404Z,2008
2018-09-26T05:47:32.427Z,2080
2018-09-26T05:48:34.455Z,2168
2018-09-26T05:49:36.463Z,2256
2018-09-26T05:50:38.502Z,2340
2018-09-26T05:51:41.100Z,2416
2018-09-26T05:52:43.117Z,2492
2018-09-26T05:53:45.130Z,2572
2018-09-26T05:54:47.155Z,2664
2018-09-26T05:55:49.176Z,2744
2018-09-26T05:56:51.193Z,2844
2018-09-26T05:57:53.594Z,2940
2018-09-26T05:58:55.627Z,3032
2018-09-26T05:59:57.644Z,3160
2018-09-26T06:00:59.659Z,3304
2018-09-26T06:02:01.691Z,3460
2018-09-26T06:03:04.280Z,3624
2018-09-26T06:04:06.299Z,3804
2018-09-26T06:05:08.324Z,3944
2018-09-26T06:06:10.335Z,4076
2018-09-26T06:07:12.652Z,4188
2018-09-26T06:08:15.263Z,4316
2018-09-26T06:09:17.578Z,4436
2018-09-26T06:10:19.589Z,4536
2018-09-26T06:11:21.656Z,4620
2018-09-26T06:12:23.965Z,4704
2018-09-26T06:13:26.273Z,4784
2018-09-26T06:14:28.591Z,4864
2018-09-26T06:15:30.608Z,4968
2018-09-26T06:16:32.634Z,5096
2018-09-26T06:17:34.652Z,5244
2018-09-26T06:18:36.684Z,5416
2018-09-26T06:19:38.699Z,5604
2018-09-26T06:20:41.017Z,5812
2018-09-26T06:21:43.048Z,6008
2018-09-26T06:22:45.061Z,6180
2018-09-26T06:23:47.096Z,6368
2018-09-26T06:24:49.872Z,6524
2018-09-26T06:25:52.600Z,6672
2018-09-26T06:26:54.905Z,6856
2018-09-26T06:27:56.931Z,6996
2018-09-26T06:28:58.954Z,7096
2018-09-26T06:30:00.983Z,7200
2018-09-26T06:31:03.006Z,7316
2018-09-26T06:32:05.403Z,7464
2018-09-26T06:33:07.428Z,7616
2018-09-26T06:34:09.741Z,7772
2018-09-26T06:35:11.755Z,7940
2018-09-26T06:36:13.779Z,8088
2018-09-26T06:37:15.801Z,8268
2018-09-26T06:38:17.819Z,8452
2018-09-26T06:39:20.140Z,8572
2018-09-26T06:40:22.168Z,8656
2018-09-26T06:41:24.573Z,8772
2018-09-26T06:42:26.591Z,8872
2018-09-26T06:43:28.906Z,8972
2018-09-26T06:44:30.927Z,9088
2018-09-26T06:45:32.954Z,9224
2018-09-26T06:46:34.984Z,9364
2018-09-26T06:47:37.327Z,9432
2018-09-26T06:48:39.328Z,9408
2018-09-26T06:49:41.350Z,9384
2018-09-26T06:50:43.376Z,9260
2018-09-26T06:51:45.390Z,9052
2018-09-26T06:52:47.419Z,8816
2018-09-26T06:53:49.445Z,8592
2018-09-26T06:54:51.857Z,8372
2018-09-26T06:55:53.892Z,8172
2018-09-26T06:56:55.905Z,8000
2018-09-26T06:57:57.932Z,7816
2018-09-26T06:58:59.960Z,7816
2018-09-26T07:00:01.989Z,7800
2018-09-26T07:01:04.296Z,7868
2018-09-26T07:02:06.324Z,7892
2018-09-26T07:03:08.624Z,7936
2018-09-26T07:04:10.644Z,7992
2018-09-26T07:05:12.677Z,8044
2018-09-26T07:06:14.697Z,8116
2018-09-26T07:07:16.713Z,8212
2018-09-26T07:08:19.134Z,8448
2018-09-26T07:09:21.152Z,8676
2018-09-26T07:10:23.891Z,8912
2018-09-26T07:11:26.593Z,9112
2018-09-26T07:12:28.625Z,9216
2018-09-26T07:13:30.645Z,9172
2018-09-26T07:14:33.047Z,9208
2018-09-26T07:15:35.061Z,9160
2018-09-26T07:16:37.773Z,9124
2018-09-26T07:17:39.797Z,9076
2018-09-26T07:18:41.821Z,9044
2018-09-26T07:19:43.852Z,9012
2018-09-26T07:20:45.864Z,8968
2018-09-26T07:21:48.584Z,8936
2018-09-26T07:22:50.602Z,8944
2018-09-26T07:23:52.657Z,9000
2018-09-26T07:24:55.034Z,8952
2018-09-26T07:25:57.061Z,8940
2018-09-26T07:26:59.087Z,8972
2018-09-26T07:28:01.107Z,9236
2018-09-26T07:29:03.523Z,9552
2018-09-26T07:30:05.723Z,9892
2018-09-26T07:31:07.571Z,10252
2018-09-26T07:32:09.701Z,10652
2018-09-26T07:33:12.390Z,11128
2018-09-26T07:34:14.407Z,12248
2018-09-26T07:35:16.450Z,12360
2018-09-26T07:36:18.745Z,11728
2018-09-26T07:37:20.773Z,11824
2018-09-26T07:38:23.140Z,12200
2018-09-26T07:39:25.846Z,12980
2018-09-26T07:40:27.867Z,13372
2018-09-26T07:41:30.186Z,14860
2018-09-26T07:42:32.598Z,14044
2018-09-26T07:43:34.906Z,14084
2018-09-26T07:44:36.936Z,13732
2018-09-26T07:45:39.297Z,13452
2018-09-26T07:46:41.264Z,12724
2018-09-26T07:47:43.295Z,12456
2018-09-26T07:48:45.327Z,12648
2018-09-26T07:49:47.939Z,12712
2018-09-26T07:50:51.015Z,12836
2018-09-26T07:51:53.044Z,12808
2018-09-26T07:52:55.718Z,13124
2018-09-26T07:53:58.273Z,13516
2018-09-26T07:55:00.316Z,13676
2018-09-26T07:56:02.339Z,13912
2018-09-26T07:57:04.371Z,14488
2018-09-26T07:58:06.699Z,15144
2018-09-26T07:59:08.809Z,16132
2018-09-26T08:00:10.752Z,16428
2018-09-26T08:01:12.769Z,16724
2018-09-26T08:02:15.094Z,16252
2018-09-26T08:03:17.496Z,17108
2018-09-26T08:04:19.942Z,17472
2018-09-26T08:05:22.639Z,17232
2018-09-26T08:06:24.670Z,16768
2018-09-26T08:07:26.691Z,20032
2018-09-26T08:08:28.717Z,23616
2018-09-26T08:09:31.121Z,23840
2018-09-26T08:10:33.141Z,25120
2018-09-26T08:11:35.198Z,21120
2018-09-26T08:12:37.205Z,17176
2018-09-26T08:13:39.224Z,19072
2018-09-26T08:14:41.263Z,18720
2018-09-26T08:15:43.283Z,26592
2018-09-26T08:16:45.307Z,27712
2018-09-26T08:17:48.008Z,32064
2018-09-26T08:18:50.017Z,36640
2018-09-26T08:19:52.045Z,34176
2018-09-26T08:20:54.077Z,37664
2018-09-26T08:21:56.391Z,36928
2018-09-26T08:22:58.688Z,33568
2018-09-26T08:24:00.757Z,33568
2018-09-26T08:25:03.614Z,38976
2018-09-26T08:26:06.021Z,38080
2018-09-26T08:27:08.041Z,36224
2018-09-26T08:28:10.462Z,37856
2018-09-26T08:29:12.777Z,45856
2018-09-26T08:30:14.813Z,44128
2018-09-26T08:31:16.831Z,51424
2018-09-26T08:32:18.867Z,56416
2018-09-26T08:33:20.892Z,53376
2018-09-26T08:34:23.197Z,49152
2018-09-26T08:35:25.618Z,53344
2018-09-26T08:36:27.633Z,46048
2018-09-26T08:37:30.058Z,50624
2018-09-26T08:38:32.090Z,51360
2018-09-26T08:39:34.127Z,52864
2018-09-26T08:40:36.147Z,58368
2018-09-26T08:41:38.177Z,56864
2018-09-26T08:42:40.587Z,56384
2018-09-26T08:43:42.619Z,57504
2018-09-26T08:44:44.938Z,58144
2018-09-26T08:45:46.960Z,59296
2018-09-26T08:46:48.986Z,58912
2018-09-26T08:47:51.023Z,53728
2018-09-26T08:48:53.045Z,59584
2018-09-26T08:49:55.078Z,61760
2018-09-26T08:50:57.109Z,57792
2018-09-26T08:51:59.128Z,55072
2018-09-26T08:53:01.164Z,66976
2018-09-26T08:54:03.202Z,45568
2018-09-26T08:55:05.236Z,32512
2018-09-26T08:56:07.254Z,58656
2018-09-26T08:57:09.283Z,63712
2018-09-26T08:58:11.405Z,53504
2018-09-26T08:59:13.429Z,66592
2018-09-26T09:00:15.476Z,54400
2018-09-26T09:01:17.514Z,35744
2018-09-26T09:02:19.548Z,37984
2018-09-26T09:03:21.603Z,49664
2018-09-26T09:04:24.317Z,70880
2018-09-26T09:05:26.410Z,58368
2018-09-26T09:06:28.733Z,59296
2018-09-26T09:07:30.842Z,57376
2018-09-26T09:08:33.189Z,50176
2018-09-26T09:09:35.226Z,55424
2018-09-26T09:10:37.246Z,44544
2018-09-26T09:11:39.708Z,39680
2018-09-26T09:12:42.942Z,47456
2018-09-26T09:13:44.998Z,35296
2018-09-26T09:14:47.885Z,33824
2018-09-26T09:15:49.753Z,35904
2018-09-26T09:16:51.788Z,32448
2018-09-26T09:17:53.866Z,30208
2018-09-26T09:18:55.840Z,27584
2018-09-26T09:19:58.167Z,25984
2018-09-26T09:21:00.184Z,22496
2018-09-26T09:22:02.217Z,21760
2018-09-26T09:23:04.547Z,22048
2018-09-26T09:24:06.573Z,24160
2018-09-26T09:25:08.615Z,29984
2018-09-26T09:26:10.661Z,37088
2018-09-26T09:27:13.064Z,51232
2018-09-26T09:28:15.928Z,51040
2018-09-26T09:29:18.358Z,56480
2018-09-26T09:30:20.664Z,35616
2018-09-26T09:31:22.702Z,36288
2018-09-26T09:32:24.830Z,36448
2018-09-26T09:33:26.759Z,49824
2018-09-26T09:34:28.845Z,51648
2018-09-26T09:35:30.868Z,56768
2018-09-26T09:36:32.935Z,59360
2018-09-26T09:37:34.933Z,58272
2018-09-26T09:38:36.968Z,60384
2018-09-26T09:39:38.999Z,62080
2018-09-26T09:40:41.023Z,62144
2018-09-26T09:41:43.063Z,69024
2018-09-26T09:42:45.086Z,69088
2018-09-26T09:43:47.111Z,62656
2018-09-26T09:44:49.420Z,57440
2018-09-26T09:45:51.447Z,50752
2018-09-26T09:46:53.485Z,54496
2018-09-26T09:47:55.900Z,46976
2018-09-26T09:48:58.228Z,46080
2018-09-26T09:50:00.572Z,34720
2018-09-26T09:51:02.599Z,39456
2018-09-26T09:52:04.931Z,40032
2018-09-26T09:53:06.967Z,50144
2018-09-26T09:54:08.986Z,51264
2018-09-26T09:55:11.017Z,52064
2018-09-26T09:56:13.114Z,56032
2018-09-26T09:57:15.460Z,41344
2018-09-26T09:58:17.499Z,46976
2018-09-26T09:59:19.525Z,57632
2018-09-26T10:00:21.942Z,59328
2018-09-26T10:01:23.970Z,63040
2018-09-26T10:02:26.368Z,64000
2018-09-26T10:03:28.327Z,63840
2018-09-26T10:04:30.362Z,64928
2018-09-26T10:05:32.887Z,65536
2018-09-26T10:06:34.928Z,69952
2018-09-26T10:07:36.968Z,74752
2018-09-26T10:08:39.026Z,74368
2018-09-26T10:09:41.044Z,77792
2018-09-26T10:10:43.065Z,72800
2018-09-26T10:11:45.242Z,69472
2018-09-26T10:12:47.278Z,68032
2018-09-26T10:13:49.304Z,64000
2018-09-26T10:14:51.653Z,59232
2018-09-26T10:15:53.674Z,52704
2018-09-26T10:16:55.800Z,37152
2018-09-26T10:17:57.837Z,35520
2018-09-26T10:18:59.888Z,33984
2018-09-26T10:20:02.201Z,47008
2018-09-26T10:21:04.242Z,40352
2018-09-26T10:22:06.666Z,53600
2018-09-26T10:23:08.702Z,42272
2018-09-26T10:24:10.725Z,64576
2018-09-26T10:25:12.835Z,59520
2018-09-26T10:26:15.405Z,57504
2018-09-26T10:27:18.169Z,60768
2018-09-26T10:28:20.208Z,51520
2018-09-26T10:29:22.246Z,34784
2018-09-26T10:30:24.280Z,34304
2018-09-26T10:31:27.093Z,33152
2018-09-26T10:32:29.412Z,45920
2018-09-26T10:33:31.728Z,55136
2018-09-26T10:34:33.762Z,58496
2018-09-26T10:35:35.800Z,59968
2018-09-26T10:36:37.827Z,45536
2018-09-26T10:37:39.864Z,42496
2018-09-26T10:38:41.911Z,62112
2018-09-26T10:39:43.923Z,62400
2018-09-26T10:40:45.969Z,41568
2018-09-26T10:41:47.997Z,31360
2018-09-26T10:42:50.704Z,29568
2018-09-26T10:43:52.720Z,29280
2018-09-26T10:44:54.756Z,28672
2018-09-26T10:45:57.178Z,36160
2018-09-26T10:46:59.207Z,49824
2018-09-26T10:48:01.538Z,37024
2018-09-26T10:49:03.558Z,44544
2018-09-26T10:50:05.943Z,46784
2018-09-26T10:51:07.926Z,51360
2018-09-26T10:52:10.350Z,64000
2018-09-26T10:53:12.378Z,53920
2018-09-26T10:54:14.410Z,43744
2018-09-26T10:55:16.437Z,50272
2018-09-26T10:56:18.573Z,70176
2018-09-26T10:57:20.514Z,71584
2018-09-26T10:58:22.542Z,71968
2018-09-26T10:59:24.577Z,53408
2018-09-26T11:00:26.883Z,57824
2018-09-26T11:01:28.920Z,46272
2018-09-26T11:02:30.983Z,46176
2018-09-26T11:03:32.983Z,48320
2018-09-26T11:04:35.026Z,40768
2018-09-26T11:05:37.054Z,35968
2018-09-26T11:06:39.085Z,33696
2018-09-26T11:07:41.113Z,32896
2018-09-26T11:08:43.155Z,33248
2018-09-26T11:09:45.566Z,32768
2018-09-26T11:10:47.602Z,32064
2018-09-26T11:11:49.642Z,29152
2018-09-26T11:12:51.672Z,27680
2018-09-26T11:13:53.718Z,26752
2018-09-26T11:14:55.748Z,28160
2018-09-26T11:15:57.800Z,28384
2018-09-26T11:17:00.401Z,25120
2018-09-26T11:18:02.723Z,23040
2018-09-26T11:19:04.757Z,20896
2018-09-26T11:20:06.862Z,20384
2018-09-26T11:21:10.155Z,21056
2018-09-26T11:22:14.146Z,20416
2018-09-26T11:23:16.542Z,19616
2018-09-26T11:24:18.868Z,20288
2018-09-26T11:25:20.908Z,20992
2018-09-26T11:26:23.355Z,18912
2018-09-26T11:27:25.254Z,18080
2018-09-26T11:28:27.377Z,17560
2018-09-26T11:29:29.354Z,17044
2018-09-26T11:30:31.766Z,17128
2018-09-26T11:31:33.834Z,19072
2018-09-26T11:32:35.864Z,20128
2018-09-26T11:33:38.616Z,20192
2018-09-26T11:34:40.961Z,21280
2018-09-26T11:35:43.720Z,23744
2018-09-26T11:36:45.870Z,26176
2018-09-26T11:37:47.896Z,27136
2018-09-26T11:38:49.939Z,26208
2018-09-26T11:39:52.362Z,25760
2018-09-26T11:40:54.429Z,28448
2018-09-26T11:41:57.054Z,29600
2018-09-26T11:42:59.111Z,34688
2018-09-26T11:44:01.584Z,52608
2018-09-26T11:45:04.395Z,59008
2018-09-26T11:46:06.464Z,41280
2018-09-26T11:47:08.467Z,43040
2018-09-26T11:48:10.825Z,37760
2018-09-26T11:49:12.916Z,36160
2018-09-26T11:50:15.121Z,32672
2018-09-26T11:51:17.268Z,34560
2018-09-26T11:52:20.222Z,35104
2018-09-26T11:53:22.147Z,46944
2018-09-26T11:54:24.171Z,48096
2018-09-26T11:55:26.216Z,54496
2018-09-26T11:56:28.297Z,65248
2018-09-26T11:57:30.767Z,46304
2018-09-26T11:58:32.806Z,36160
2018-09-26T11:59:35.129Z,36352
2018-09-26T12:00:37.472Z,54240
2018-09-26T12:01:39.511Z,55552
2018-09-26T12:02:41.631Z,68992
2018-09-26T12:03:43.629Z,59712
2018-09-26T12:04:45.667Z,56480
2018-09-26T12:05:47.705Z,50240
2018-09-26T12:06:49.731Z,29184
2018-09-26T12:07:51.769Z,50272
2018-09-26T12:08:53.803Z,56096
2018-09-26T12:09:55.834Z,58368
2018-09-26T12:10:57.881Z,42592
2018-09-26T12:12:00.311Z,31648
2018-09-26T12:13:02.343Z,44224
2018-09-26T12:14:04.369Z,59872
2018-09-26T12:15:06.404Z,77216
2018-09-26T12:16:08.458Z,67776
2018-09-26T12:17:10.892Z,63968
2018-09-26T12:18:12.971Z,64320
2018-09-26T12:19:15.031Z,71488
2018-09-26T12:20:17.406Z,32640
2018-09-26T12:21:30.251Z,32672
2018-09-26T12:22:21.978Z,37760
2018-09-26T12:23:24.476Z,63072
2018-09-26T12:24:26.841Z,79264
2018-09-26T12:25:29.227Z,86784
2018-09-26T12:26:31.268Z,87968
2018-09-26T12:27:34.179Z,87040
2018-09-26T12:28:36.233Z,81504
2018-09-26T12:29:38.271Z,66688
2018-09-26T12:30:40.681Z,26688
2018-09-26T12:31:42.711Z,89664
2018-09-26T12:32:44.760Z,73344
2018-09-26T12:33:46.815Z,90976
2018-09-26T12:34:49.169Z,58720
2018-09-26T12:35:52.003Z,33056
2018-09-26T12:36:54.039Z,32256
2018-09-26T12:37:56.117Z,36832
2018-09-26T12:38:58.365Z,37280
2018-09-26T12:40:00.516Z,34016
2018-09-26T12:41:03.195Z,44992
2018-09-26T12:42:05.276Z,33824
2018-09-26T12:43:07.541Z,28608
2018-09-26T12:44:09.585Z,33152
2018-09-26T12:45:11.617Z,31520
2018-09-26T12:46:14.087Z,35520
2018-09-26T12:47:16.512Z,40064
2018-09-26T12:48:18.539Z,33984
2018-09-26T12:49:21.231Z,35072
2018-09-26T12:50:23.269Z,34400
2018-09-26T12:51:25.325Z,30496
2018-09-26T12:52:27.956Z,27200
2018-09-26T12:53:30.467Z,25472
2018-09-26T12:54:32.868Z,29920
2018-09-26T12:55:34.901Z,30240
2018-09-26T12:56:37.639Z,30912
2018-09-26T12:57:39.961Z,37056
2018-09-26T12:58:41.993Z,31008
2018-09-26T12:59:44.033Z,31904
2018-09-26T13:00:46.238Z,63520
2018-09-26T13:01:48.103Z,30368
2018-09-26T13:02:50.436Z,65504
2018-09-26T13:03:52.447Z,59296
2018-09-26T13:04:54.477Z,49888
2018-09-26T13:05:56.902Z,41792
2018-09-26T13:06:58.940Z,38432
2018-09-26T13:08:00.984Z,40384
2018-09-26T13:09:03.312Z,41408
2018-09-26T13:10:05.646Z,30560
2018-09-26T13:11:07.664Z,34496
2018-09-26T13:12:10.020Z,32160
2018-09-26T13:13:12.010Z,27616
2018-09-26T13:14:14.477Z,35488
2018-09-26T13:15:16.949Z,33280
2018-09-26T13:16:19.407Z,33984
2018-09-26T13:17:21.967Z,33152
2018-09-26T13:18:24.020Z,32576
2018-09-26T13:19:26.525Z,39744
2018-09-26T13:20:28.558Z,29440
2018-09-26T13:21:30.607Z,41632
2018-09-26T13:22:32.642Z,28512
2018-09-26T13:23:34.681Z,31744
2018-09-26T13:24:36.724Z,28832
2018-09-26T13:25:38.764Z,29920
2018-09-26T13:26:41.533Z,29632
2018-09-26T13:27:43.560Z,29088
2018-09-26T13:28:45.602Z,30624
2018-09-26T13:29:48.012Z,30528
2018-09-26T13:30:50.096Z,26240
2018-09-26T13:31:52.089Z,24608
2018-09-26T13:32:54.138Z,24896
2018-09-26T13:33:56.166Z,22784
2018-09-26T13:34:58.216Z,22560
2018-09-26T13:36:00.245Z,24896
2018-09-26T13:37:02.664Z,28224
2018-09-26T13:38:04.737Z,28352
2018-09-26T13:39:06.756Z,26944
2018-09-26T13:40:08.781Z,23744
2018-09-26T13:41:10.813Z,22080
2018-09-26T13:42:12.897Z,20832
2018-09-26T13:43:14.883Z,19456
2018-09-26T13:44:16.980Z,19232
2018-09-26T13:45:19.363Z,19488
2018-09-26T13:46:21.880Z,19840
2018-09-26T13:47:24.620Z,22656
2018-09-26T13:48:27.255Z,23744
2018-09-26T13:49:29.283Z,25920
2018-09-26T13:50:31.329Z,24640
2018-09-26T13:51:33.361Z,21248
2018-09-26T13:52:35.391Z,18020
2018-09-26T13:53:37.417Z,17836
2018-09-26T13:54:39.466Z,16780
2018-09-26T13:55:41.495Z,18688
2018-09-26T13:56:43.540Z,20768
2018-09-26T13:57:45.578Z,20640
2018-09-26T13:58:47.600Z,18656
2018-09-26T13:59:49.655Z,15156
2018-09-26T14:00:51.681Z,12660
2018-09-26T14:01:53.727Z,12128
2018-09-26T14:02:55.750Z,12228
2018-09-26T14:03:57.793Z,13112
2018-09-26T14:04:59.836Z,13676